Terminal Aerodrome Forecast
Issued by NWS Mt. Holly, NJ

Home | Current Version | Previous Version | Text Only | Print | Product List | Glossary On
Versions: 1 2 3 4 5 6 7 8 9 10 11 12 13 14 15 16 17 18 19
128
FTUS41 KPHI 290529
TAFTTN
TAF
KTTN 290529Z 2906/3006 02004KT 4SM -SHRA BR SCT030 OVC080
      TEMPO 2907/2909 2SM RA BR OVC010
     FM290900 02008KT 3SM +RA BR OVC005
     FM291300 03008KT 4SM SHRA BR OVC010
     FM291500 03010KT P6SM -SHRA OVC018
     FM291800 02010KT P6SM BKN035
     FM292200 VRB03KT P6SM SCT045=

USA.gov is the U.S. government's official web portal to all federal, state and local government web resources and services.